Sd416 Nippon — SKPF — position and weather

sailwx.info

Track history (hours):
 
Tides and Currents Weather Stations Pressure Air Temp Water Temp Dewpoint Dewpoint Depression Visibility Wind Speed Wind Dir Waves Ship Positions

Sd416 Nippon

Last reported at 2015-Mar-03 11:16 UTC. Time now 2015-Mar-03 12:40 UTC.
Position N 58°51' E 010°49'.

Length 17 m; draft 2.5 m.

Type: Fishing. MMSI: 266163000.

Date/timePositionNaut miles runAvg speedWind from/ knotsBaromVisibWave heightAir tempDewpointWater temp
2015-Mar-03 11:16N 58°51' E 010°49'1 0.2
2015-Mar-03 03:09N 58°52' E 010°48'0 0.2
2015-Mar-03 02:32N 58°52' E 010°48'1 1.1
2015-Mar-03 01:33N 58°51' E 010°48'1 1.4
2015-Mar-03 00:33N 58°50' E 010°50'2 1.4
2015-Mar-02 23:16N 58°48' E 010°52'1 0.3
2015-Mar-02 20:25N 58°48' E 010°52'1 1.2
2015-Mar-02 19:13N 58°47' E 010°50'2 0.9
2015-Mar-02 16:33N 58°48' E 010°45'  
2015-Feb-26 09:04N 58°50' E 010°49'3 1.1
2015-Feb-26 06:33N 58°48' E 010°49'2 0.3
2015-Feb-26 00:09N 58°47' E 010°53'  
2015-Feb-22 17:26N 58°51' E 010°49'1 1.4
2015-Feb-22 16:33N 58°50' E 010°48'1 1.1
2015-Feb-22 15:17N 58°49' E 010°50'1 1.3
2015-Feb-22 14:28N 58°48' E 010°51'1 0.4
2015-Feb-22 12:11N 58°49' E 010°53'1 1.4
2015-Feb-22 11:30N 58°48' E 010°54'4 1.0
2015-Feb-22 07:06N 58°52' E 010°54'0 0.0
2015-Feb-22 04:19N 58°52' E 010°54'1 0.4
2015-Feb-22 02:10N 58°51' E 010°54'1 1.5
2015-Feb-22 01:19N 58°52' E 010°51'1 1.2
2015-Feb-22 00:19N 58°51' E 010°49'1 1.2
2015-Feb-21 23:25N 58°52' E 010°50'2 1.7
2015-Feb-21 22:27N 58°53' E 010°48'1 0.9
2015-Feb-21 21:12N 58°53' E 010°50'  
Track history (hours):
 
Tides and Currents Weather Stations Pressure Air Temp Water Temp Dewpoint Dewpoint Depression Visibility Wind Speed Wind Dir Waves Ship Positions

Sd416 Nippon

Last reported at 2015-Mar-03 11:16 UTC. Time now 2015-Mar-03 12:40 UTC.
Position N 58°51' E 010°49'.

Length 17 m; draft 2.5 m.

Type: Fishing. MMSI: 266163000.

Date/timePositionNaut miles runAvg speedWind from/ knotsBaromVisibWave heightAir tempDewpointWater temp
2015-Mar-03 11:16N 58°51' E 010°49'1 0.2
2015-Mar-03 03:09N 58°52' E 010°48'0 0.2
2015-Mar-03 02:32N 58°52' E 010°48'1 1.1
2015-Mar-03 01:33N 58°51' E 010°48'1 1.4
2015-Mar-03 00:33N 58°50' E 010°50'2 1.4
2015-Mar-02 23:16N 58°48' E 010°52'1 0.3
2015-Mar-02 20:25N 58°48' E 010°52'1 1.2
2015-Mar-02 19:13N 58°47' E 010°50'2 0.9
2015-Mar-02 16:33N 58°48' E 010°45'  
2015-Feb-26 09:04N 58°50' E 010°49'3 1.1
2015-Feb-26 06:33N 58°48' E 010°49'2 0.3
2015-Feb-26 00:09N 58°47' E 010°53'  
2015-Feb-22 17:26N 58°51' E 010°49'1 1.4
2015-Feb-22 16:33N 58°50' E 010°48'1 1.1
2015-Feb-22 15:17N 58°49' E 010°50'1 1.3
2015-Feb-22 14:28N 58°48' E 010°51'1 0.4
2015-Feb-22 12:11N 58°49' E 010°53'1 1.4
2015-Feb-22 11:30N 58°48' E 010°54'4 1.0
2015-Feb-22 07:06N 58°52' E 010°54'0 0.0
2015-Feb-22 04:19N 58°52' E 010°54'1 0.4
2015-Feb-22 02:10N 58°51' E 010°54'1 1.5
2015-Feb-22 01:19N 58°52' E 010°51'1 1.2
2015-Feb-22 00:19N 58°51' E 010°49'1 1.2
2015-Feb-21 23:25N 58°52' E 010°50'2 1.7
2015-Feb-21 22:27N 58°53' E 010°48'1 0.9
2015-Feb-21 21:12N 58°53' E 010°50'  

Dump ship's entire track history